sensor_id;sensor_type;location;lat;lon;timestamp;temperature;humidity
13892;DHT22;7016;48.172;8.058;2023-04-07T00:01:47;8.70;99.90
13892;DHT22;7016;48.172;8.058;2023-04-07T00:04:13;8.70;99.90
13892;DHT22;7016;48.172;8.058;2023-04-07T00:06:38;8.60;99.90
13892;DHT22;7016;48.172;8.058;2023-04-07T00:09:05;8.60;99.90
13892;DHT22;7016;48.172;8.058;2023-04-07T00:11:35;8.60;99.90
13892;DHT22;7016;48.172;8.058;2023-04-07T00:14:00;8.60;99.90
13892;DHT22;7016;48.172;8.058;2023-04-07T00:16:26;8.50;99.90
13892;DHT22;7016;48.172;8.058;2023-04-07T00:18:52;8.50;99.90
13892;DHT22;7016;48.172;8.058;2023-04-07T00:21:17;8.50;99.90
13892;DHT22;7016;48.172;8.058;2023-04-07T00:23:43;8.50;99.90
13892;DHT22;7016;48.172;8.058;2023-04-07T00:26:09;8.50;99.90
13892;DHT22;7016;48.172;8.058;2023-04-07T00:28:35;8.50;99.90
13892;DHT22;7016;48.172;8.058;2023-04-07T00:31:00;8.30;99.90
13892;DHT22;7016;48.172;8.058;2023-04-07T00:33:26;8.20;99.90
13892;DHT22;7016;48.172;8.058;2023-04-07T00:35:52;8.30;99.90
13892;DHT22;7016;48.172;8.058;2023-04-07T00:38:18;8.30;99.90
13892;DHT22;7016;48.172;8.058;2023-04-07T00:40:44;8.30;99.90
13892;DHT22;7016;48.172;8.058;2023-04-07T00:43:10;8.30;99.90
13892;DHT22;7016;48.172;8.058;2023-04-07T00:45:36;8.20;99.90
13892;DHT22;7016;48.172;8.058;2023-04-07T00:48:03;8.20;99.90
13892;DHT22;7016;48.172;8.058;2023-04-07T00:50:29;8.20;99.90
13892;DHT22;7016;48.172;8.058;2023-04-07T00:52:54;8.20;99.90
13892;DHT22;7016;48.172;8.058;2023-04-07T00:55:21;8.10;99.90
13892;DHT22;7016;48.172;8.058;2023-04-07T00:57:47;8.20;99.90
13892;DHT22;7016;48.172;8.058;2023-04-07T01:00:13;8.10;99.90
13892;DHT22;7016;48.172;8.058;2023-04-07T01:05:16;8.10;99.90
13892;DHT22;7016;48.172;8.058;2023-04-07T01:07:49;8.00;99.90
13892;DHT22;7016;48.172;8.058;2023-04-07T01:10:23;8.00;99.90
13892;DHT22;7016;48.172;8.058;2023-04-07T01:13:00;8.10;99.90
13892;DHT22;7016;48.172;8.058;2023-04-07T01:17:59;8.10;99.90
13892;DHT22;7016;48.172;8.058;2023-04-07T01:20:29;8.10;99.90
13892;DHT22;7016;48.172;8.058;2023-04-07T01:23:03;8.20;99.90
13892;DHT22;7016;48.172;8.058;2023-04-07T01:31:09;8.10;99.90
13892;DHT22;7016;48.172;8.058;2023-04-07T01:33:37;8.10;99.90
13892;DHT22;7016;48.172;8.058;2023-04-07T01:36:05;8.10;99.90
13892;DHT22;7016;48.172;8.058;2023-04-07T01:38:32;8.10;99.90
13892;DHT22;7016;48.172;8.058;2023-04-07T01:40:59;8.10;99.90
13892;DHT22;7016;48.172;8.058;2023-04-07T01:43:26;8.10;99.90
13892;DHT22;7016;48.172;8.058;2023-04-07T01:45:54;8.00;99.90
13892;DHT22;7016;48.172;8.058;2023-04-07T01:48:20;7.90;99.90
13892;DHT22;7016;48.172;8.058;2023-04-07T01:50:47;8.00;99.90
13892;DHT22;7016;48.172;8.058;2023-04-07T01:53:14;8.10;99.90
13892;DHT22;7016;48.172;8.058;2023-04-07T01:55:44;8.10;99.90
13892;DHT22;7016;48.172;8.058;2023-04-07T01:58:10;8.10;99.90
13892;DHT22;7016;48.172;8.058;2023-04-07T02:00:36;7.90;99.90
13892;DHT22;7016;48.172;8.058;2023-04-07T02:03:08;7.90;99.90
13892;DHT22;7016;48.172;8.058;2023-04-07T02:05:37;7.90;99.90
13892;DHT22;7016;48.172;8.058;2023-04-07T02:08:05;7.90;99.90
13892;DHT22;7016;48.172;8.058;2023-04-07T02:10:34;8.10;99.90
13892;DHT22;7016;48.172;8.058;2023-04-07T02:13:04;8.00;99.90
13892;DHT22;7016;48.172;8.058;2023-04-07T02:15:30;7.90;99.90
13892;DHT22;7016;48.172;8.058;2023-04-07T02:17:57;7.90;99.90
13892;DHT22;7016;48.172;8.058;2023-04-07T02:20:24;7.70;99.90
13892;DHT22;7016;48.172;8.058;2023-04-07T02:22:49;7.70;99.90
13892;DHT22;7016;48.172;8.058;2023-04-07T02:25:23;7.60;99.90
13892;DHT22;7016;48.172;8.058;2023-04-07T02:27:50;7.70;99.90
13892;DHT22;7016;48.172;8.058;2023-04-07T02:30:15;7.80;99.90
13892;DHT22;7016;48.172;8.058;2023-04-07T02:32:41;7.80;99.90
13892;DHT22;7016;48.172;8.058;2023-04-07T02:35:07;7.90;99.90
13892;DHT22;7016;48.172;8.058;2023-04-07T02:37:32;7.90;99.90
13892;DHT22;7016;48.172;8.058;2023-04-07T02:39:58;7.70;99.90
13892;DHT22;7016;48.172;8.058;2023-04-07T02:42:24;7.60;99.90
13892;DHT22;7016;48.172;8.058;2023-04-07T02:44:49;7.70;99.90
13892;DHT22;7016;48.172;8.058;2023-04-07T02:47:15;7.60;99.90
13892;DHT22;7016;48.172;8.058;2023-04-07T02:49:41;7.60;99.90
13892;DHT22;7016;48.172;8.058;2023-04-07T02:52:07;7.60;99.90
13892;DHT22;7016;48.172;8.058;2023-04-07T02:54:32;7.60;99.90
13892;DHT22;7016;48.172;8.058;2023-04-07T02:56:58;7.60;99.90
13892;DHT22;7016;48.172;8.058;2023-04-07T02:59:24;7.60;99.90
13892;DHT22;7016;48.172;8.058;2023-04-07T03:01:49;7.50;99.90
13892;DHT22;7016;48.172;8.058;2023-04-07T03:04:16;7.70;99.90
13892;DHT22;7016;48.172;8.058;2023-04-07T03:06:41;7.50;99.90
13892;DHT22;7016;48.172;8.058;2023-04-07T03:09:07;7.50;99.90
13892;DHT22;7016;48.172;8.058;2023-04-07T03:11:33;7.50;99.90
13892;DHT22;7016;48.172;8.058;2023-04-07T03:13:58;7.40;99.90
13892;DHT22;7016;48.172;8.058;2023-04-07T03:16:24;7.40;99.90
13892;DHT22;7016;48.172;8.058;2023-04-07T03:18:50;7.30;99.90
13892;DHT22;7016;48.172;8.058;2023-04-07T03:21:16;7.20;99.90
13892;DHT22;7016;48.172;8.058;2023-04-07T03:23:42;7.10;99.90
13892;DHT22;7016;48.172;8.058;2023-04-07T03:26:07;7.10;99.90
13892;DHT22;7016;48.172;8.058;2023-04-07T03:28:33;7.00;99.90
13892;DHT22;7016;48.172;8.058;2023-04-07T03:30:59;6.90;99.90
13892;DHT22;7016;48.172;8.058;2023-04-07T03:33:24;6.90;99.90
13892;DHT22;7016;48.172;8.058;2023-04-07T03:35:50;6.90;99.90
13892;DHT22;7016;48.172;8.058;2023-04-07T03:38:16;6.90;99.90
13892;DHT22;7016;48.172;8.058;2023-04-07T03:40:41;7.00;99.90
13892;DHT22;7016;48.172;8.058;2023-04-07T03:43:07;6.80;99.90
13892;DHT22;7016;48.172;8.058;2023-04-07T03:45:37;6.90;99.90
13892;DHT22;7016;48.172;8.058;2023-04-07T03:48:03;6.80;99.90
13892;DHT22;7016;48.172;8.058;2023-04-07T03:50:29;6.80;99.90
13892;DHT22;7016;48.172;8.058;2023-04-07T03:52:54;6.80;99.90
13892;DHT22;7016;48.172;8.058;2023-04-07T03:55:20;6.60;99.90
13892;DHT22;7016;48.172;8.058;2023-04-07T03:57:46;6.50;99.90
13892;DHT22;7016;48.172;8.058;2023-04-07T04:00:12;6.60;99.90
13892;DHT22;7016;48.172;8.058;2023-04-07T04:02:38;6.70;99.90
13892;DHT22;7016;48.172;8.058;2023-04-07T04:05:04;6.60;99.90
13892;DHT22;7016;48.172;8.058;2023-04-07T04:07:30;6.50;99.90
13892;DHT22;7016;48.172;8.058;2023-04-07T04:09:57;6.30;99.90
13892;DHT22;7016;48.172;8.058;2023-04-07T04:12:22;6.40;99.90
13892;DHT22;7016;48.172;8.058;2023-04-07T04:14:48;6.60;99.90
13892;DHT22;7016;48.172;8.058;2023-04-07T04:17:13;6.70;99.90
13892;DHT22;7016;48.172;8.058;2023-04-07T04:19:39;6.80;99.90
13892;DHT22;7016;48.172;8.058;2023-04-07T04:22:05;6.80;99.90
13892;DHT22;7016;48.172;8.058;2023-04-07T04:24:31;6.90;99.90
13892;DHT22;7016;48.172;8.058;2023-04-07T04:26:57;6.90;99.90
13892;DHT22;7016;48.172;8.058;2023-04-07T04:29:22;6.80;99.90
13892;DHT22;7016;48.172;8.058;2023-04-07T04:31:48;6.70;99.90
13892;DHT22;7016;48.172;8.058;2023-04-07T04:34:14;6.80;99.90
13892;DHT22;7016;48.172;8.058;2023-04-07T04:36:39;6.90;99.90
13892;DHT22;7016;48.172;8.058;2023-04-07T04:39:06;6.90;99.90
13892;DHT22;7016;48.172;8.058;2023-04-07T04:41:31;6.90;99.90
13892;DHT22;7016;48.172;8.058;2023-04-07T04:43:57;6.90;99.90
13892;DHT22;7016;48.172;8.058;2023-04-07T04:46:23;6.80;99.90
13892;DHT22;7016;48.172;8.058;2023-04-07T04:48:49;6.80;99.90
13892;DHT22;7016;48.172;8.058;2023-04-07T04:51:16;6.80;99.90
13892;DHT22;7016;48.172;8.058;2023-04-07T04:53:41;6.80;99.90
13892;DHT22;7016;48.172;8.058;2023-04-07T04:56:07;6.90;99.90
13892;DHT22;7016;48.172;8.058;2023-04-07T04:58:34;6.90;99.90
13892;DHT22;7016;48.172;8.058;2023-04-07T05:00:59;6.80;99.90
13892;DHT22;7016;48.172;8.058;2023-04-07T05:03:27;6.70;99.90
13892;DHT22;7016;48.172;8.058;2023-04-07T05:05:53;6.80;99.90
13892;DHT22;7016;48.172;8.058;2023-04-07T05:08:19;6.80;99.90
13892;DHT22;7016;48.172;8.058;2023-04-07T05:10:45;6.50;99.90
13892;DHT22;7016;48.172;8.058;2023-04-07T05:13:11;6.40;99.90
13892;DHT22;7016;48.172;8.058;2023-04-07T05:15:37;6.50;99.90
13892;DHT22;7016;48.172;8.058;2023-04-07T05:18:03;6.50;99.90
13892;DHT22;7016;48.172;8.058;2023-04-07T05:20:28;6.50;99.90
13892;DHT22;7016;48.172;8.058;2023-04-07T05:22:54;6.60;99.90
13892;DHT22;7016;48.172;8.058;2023-04-07T05:25:20;6.60;99.90
13892;DHT22;7016;48.172;8.058;2023-04-07T05:27:45;6.70;99.90
13892;DHT22;7016;48.172;8.058;2023-04-07T05:30:11;6.50;99.90
13892;DHT22;7016;48.172;8.058;2023-04-07T05:32:37;6.50;99.90
13892;DHT22;7016;48.172;8.058;2023-04-07T05:35:03;6.70;99.90
13892;DHT22;7016;48.172;8.058;2023-04-07T05:37:29;6.80;99.90
13892;DHT22;7016;48.172;8.058;2023-04-07T05:39:55;6.80;99.90
13892;DHT22;7016;48.172;8.058;2023-04-07T05:42:20;6.80;99.90
13892;DHT22;7016;48.172;8.058;2023-04-07T05:44:46;6.90;99.90
13892;DHT22;7016;48.172;8.058;2023-04-07T05:47:12;6.90;99.90
13892;DHT22;7016;48.172;8.058;2023-04-07T05:49:38;7.00;99.90
13892;DHT22;7016;48.172;8.058;2023-04-07T05:52:10;6.90;99.90
13892;DHT22;7016;48.172;8.058;2023-04-07T05:54:36;6.70;99.90
13892;DHT22;7016;48.172;8.058;2023-04-07T05:57:02;6.80;99.90
13892;DHT22;7016;48.172;8.058;2023-04-07T05:59:28;6.90;99.90
13892;DHT22;7016;48.172;8.058;2023-04-07T06:01:53;7.00;99.90
13892;DHT22;7016;48.172;8.058;2023-04-07T06:04:19;7.00;99.90
13892;DHT22;7016;48.172;8.058;2023-04-07T06:06:45;7.10;99.90
13892;DHT22;7016;48.172;8.058;2023-04-07T06:09:11;7.00;99.90
13892;DHT22;7016;48.172;8.058;2023-04-07T06:11:36;7.10;99.90
13892;DHT22;7016;48.172;8.058;2023-04-07T06:14:02;7.10;99.90
13892;DHT22;7016;48.172;8.058;2023-04-07T06:16:28;7.20;99.90
13892;DHT22;7016;48.172;8.058;2023-04-07T06:18:53;7.20;99.90
13892;DHT22;7016;48.172;8.058;2023-04-07T06:21:19;7.20;99.90
13892;DHT22;7016;48.172;8.058;2023-04-07T06:23:45;7.10;99.90
13892;DHT22;7016;48.172;8.058;2023-04-07T06:26:12;7.00;99.90
13892;DHT22;7016;48.172;8.058;2023-04-07T06:28:38;7.00;99.90
13892;DHT22;7016;48.172;8.058;2023-04-07T06:31:04;7.00;99.90
13892;DHT22;7016;48.172;8.058;2023-04-07T06:33:30;7.10;99.90
13892;DHT22;7016;48.172;8.058;2023-04-07T06:35:56;7.20;99.90
13892;DHT22;7016;48.172;8.058;2023-04-07T06:38:22;7.20;99.90
13892;DHT22;7016;48.172;8.058;2023-04-07T06:40:48;7.30;99.90
13892;DHT22;7016;48.172;8.058;2023-04-07T06:43:14;7.30;99.90
13892;DHT22;7016;48.172;8.058;2023-04-07T06:45:39;7.30;99.90
13892;DHT22;7016;48.172;8.058;2023-04-07T06:48:05;7.40;99.90
13892;DHT22;7016;48.172;8.058;2023-04-07T06:50:31;7.40;99.90
13892;DHT22;7016;48.172;8.058;2023-04-07T06:52:57;7.40;99.90
13892;DHT22;7016;48.172;8.058;2023-04-07T06:55:22;7.40;99.90
13892;DHT22;7016;48.172;8.058;2023-04-07T06:57:48;7.50;99.90
13892;DHT22;7016;48.172;8.058;2023-04-07T07:00:16;7.50;99.90
13892;DHT22;7016;48.172;8.058;2023-04-07T07:02:43;7.60;99.90
13892;DHT22;7016;48.172;8.058;2023-04-07T07:05:09;7.60;99.90
13892;DHT22;7016;48.172;8.058;2023-04-07T07:07:36;7.60;99.90
13892;DHT22;7016;48.172;8.058;2023-04-07T07:10:02;7.40;99.90
13892;DHT22;7016;48.172;8.058;2023-04-07T07:12:28;7.50;99.90
13892;DHT22;7016;48.172;8.058;2023-04-07T07:14:53;7.50;99.90
13892;DHT22;7016;48.172;8.058;2023-04-07T07:17:19;7.60;99.90
13892;DHT22;7016;48.172;8.058;2023-04-07T07:19:45;7.50;99.90
13892;DHT22;7016;48.172;8.058;2023-04-07T07:22:10;7.60;99.90
13892;DHT22;7016;48.172;8.058;2023-04-07T07:24:36;7.70;99.90
13892;DHT22;7016;48.172;8.058;2023-04-07T07:27:02;7.80;99.90
13892;DHT22;7016;48.172;8.058;2023-04-07T07:29:28;7.70;99.90
13892;DHT22;7016;48.172;8.058;2023-04-07T07:31:54;7.90;99.90
13892;DHT22;7016;48.172;8.058;2023-04-07T07:34:19;7.90;99.90
13892;DHT22;7016;48.172;8.058;2023-04-07T07:36:45;8.00;99.90
13892;DHT22;7016;48.172;8.058;2023-04-07T07:39:11;8.00;99.90
13892;DHT22;7016;48.172;8.058;2023-04-07T07:41:36;8.10;99.90
13892;DHT22;7016;48.172;8.058;2023-04-07T07:44:02;8.10;99.90
13892;DHT22;7016;48.172;8.058;2023-04-07T07:46:28;8.20;99.90
13892;DHT22;7016;48.172;8.058;2023-04-07T07:51:20;8.20;99.90
13892;DHT22;7016;48.172;8.058;2023-04-07T07:53:46;8.20;99.90
13892;DHT22;7016;48.172;8.058;2023-04-07T07:56:12;8.10;99.90
13892;DHT22;7016;48.172;8.058;2023-04-07T07:58:37;8.20;99.90
13892;DHT22;7016;48.172;8.058;2023-04-07T08:01:03;8.20;99.90
13892;DHT22;7016;48.172;8.058;2023-04-07T08:03:29;8.20;99.90
13892;DHT22;7016;48.172;8.058;2023-04-07T08:05:54;8.30;99.90
13892;DHT22;7016;48.172;8.058;2023-04-07T08:08:21;8.30;99.90
13892;DHT22;7016;48.172;8.058;2023-04-07T08:10:46;8.30;99.90
13892;DHT22;7016;48.172;8.058;2023-04-07T08:13:13;8.40;99.90
13892;DHT22;7016;48.172;8.058;2023-04-07T08:15:39;8.50;99.90
13892;DHT22;7016;48.172;8.058;2023-04-07T08:18:05;8.50;99.90
13892;DHT22;7016;48.172;8.058;2023-04-07T08:20:32;8.60;99.90
13892;DHT22;7016;48.172;8.058;2023-04-07T08:22:59;8.60;99.90
13892;DHT22;7016;48.172;8.058;2023-04-07T08:27:54;8.60;99.90
13892;DHT22;7016;48.172;8.058;2023-04-07T08:32:48;8.70;99.90
13892;DHT22;7016;48.172;8.058;2023-04-07T08:35:14;8.70;99.90
13892;DHT22;7016;48.172;8.058;2023-04-07T08:37:40;8.70;99.90
13892;DHT22;7016;48.172;8.058;2023-04-07T08:40:08;8.80;99.90
13892;DHT22;7016;48.172;8.058;2023-04-07T08:42:34;8.80;99.90
13892;DHT22;7016;48.172;8.058;2023-04-07T08:45:04;8.80;99.90
13892;DHT22;7016;48.172;8.058;2023-04-07T08:47:32;8.80;99.90
13892;DHT22;7016;48.172;8.058;2023-04-07T08:50:03;8.80;99.90
13892;DHT22;7016;48.172;8.058;2023-04-07T08:52:38;8.90;99.90
13892;DHT22;7016;48.172;8.058;2023-04-07T08:55:06;8.90;99.90
13892;DHT22;7016;48.172;8.058;2023-04-07T08:57:33;9.00;99.90
13892;DHT22;7016;48.172;8.058;2023-04-07T09:00:00;9.00;99.90
13892;DHT22;7016;48.172;8.058;2023-04-07T09:02:40;9.00;99.90
13892;DHT22;7016;48.172;8.058;2023-04-07T09:05:08;9.00;99.90
13892;DHT22;7016;48.172;8.058;2023-04-07T09:07:35;8.90;99.90
13892;DHT22;7016;48.172;8.058;2023-04-07T09:10:01;8.90;99.90
13892;DHT22;7016;48.172;8.058;2023-04-07T09:12:29;8.80;99.90
13892;DHT22;7016;48.172;8.058;2023-04-07T09:14:55;8.90;99.90
13892;DHT22;7016;48.172;8.058;2023-04-07T09:17:21;8.90;99.90
13892;DHT22;7016;48.172;8.058;2023-04-07T09:19:47;8.90;99.90
13892;DHT22;7016;48.172;8.058;2023-04-07T09:22:13;8.90;99.90
13892;DHT22;7016;48.172;8.058;2023-04-07T09:24:40;8.90;99.90
13892;DHT22;7016;48.172;8.058;2023-04-07T09:29:36;9.00;99.90
13892;DHT22;7016;48.172;8.058;2023-04-07T09:32:02;9.00;99.90
13892;DHT22;7016;48.172;8.058;2023-04-07T09:34:30;9.00;99.90
13892;DHT22;7016;48.172;8.058;2023-04-07T09:36:56;9.00;99.90
13892;DHT22;7016;48.172;8.058;2023-04-07T09:39:23;9.10;99.90
13892;DHT22;7016;48.172;8.058;2023-04-07T09:41:49;9.10;99.90
13892;DHT22;7016;48.172;8.058;2023-04-07T09:44:22;9.10;99.90
13892;DHT22;7016;48.172;8.058;2023-04-07T09:46:54;9.20;99.90
13892;DHT22;7016;48.172;8.058;2023-04-07T09:49:24;9.30;99.90
13892;DHT22;7016;48.172;8.058;2023-04-07T09:51:54;9.30;99.90
13892;DHT22;7016;48.172;8.058;2023-04-07T09:54:35;9.20;99.90
13892;DHT22;7016;48.172;8.058;2023-04-07T09:57:03;9.10;99.90
13892;DHT22;7016;48.172;8.058;2023-04-07T09:59:31;9.00;99.90
13892;DHT22;7016;48.172;8.058;2023-04-07T10:01:58;9.00;99.90
13892;DHT22;7016;48.172;8.058;2023-04-07T10:04:24;9.00;99.90
13892;DHT22;7016;48.172;8.058;2023-04-07T10:06:55;9.00;99.90
13892;DHT22;7016;48.172;8.058;2023-04-07T10:09:26;9.00;99.90
13892;DHT22;7016;48.172;8.058;2023-04-07T10:11:53;8.90;99.90
13892;DHT22;7016;48.172;8.058;2023-04-07T10:14:20;8.90;99.90
13892;DHT22;7016;48.172;8.058;2023-04-07T10:16:48;8.80;99.90
13892;DHT22;7016;48.172;8.058;2023-04-07T10:19:14;8.80;99.90
13892;DHT22;7016;48.172;8.058;2023-04-07T10:21:41;8.90;99.90
13892;DHT22;7016;48.172;8.058;2023-04-07T10:24:36;8.90;99.90
13892;DHT22;7016;48.172;8.058;2023-04-07T10:27:13;8.90;99.90
13892;DHT22;7016;48.172;8.058;2023-04-07T10:29:41;9.00;99.90
13892;DHT22;7016;48.172;8.058;2023-04-07T10:32:08;9.00;99.90
13892;DHT22;7016;48.172;8.058;2023-04-07T10:37:15;9.00;99.90
13892;DHT22;7016;48.172;8.058;2023-04-07T10:39:47;9.00;99.90
13892;DHT22;7016;48.172;8.058;2023-04-07T10:45:00;8.80;99.90
13892;DHT22;7016;48.172;8.058;2023-04-07T10:47:28;8.80;99.90
13892;DHT22;7016;48.172;8.058;2023-04-07T10:50:23;8.80;99.90
13892;DHT22;7016;48.172;8.058;2023-04-07T10:53:07;8.80;99.90
13892;DHT22;7016;48.172;8.058;2023-04-07T11:03:41;8.70;99.90
13892;DHT22;7016;48.172;8.058;2023-04-07T11:06:16;8.80;99.90
13892;DHT22;7016;48.172;8.058;2023-04-07T11:08:44;8.90;99.90
13892;DHT22;7016;48.172;8.058;2023-04-07T11:11:38;8.90;99.90
13892;DHT22;7016;48.172;8.058;2023-04-07T11:14:04;8.80;99.90
13892;DHT22;7016;48.172;8.058;2023-04-07T11:16:41;8.80;99.90
13892;DHT22;7016;48.172;8.058;2023-04-07T11:19:07;8.90;99.90
13892;DHT22;7016;48.172;8.058;2023-04-07T11:21:33;8.90;99.90
13892;DHT22;7016;48.172;8.058;2023-04-07T11:23:59;8.80;99.90
13892;DHT22;7016;48.172;8.058;2023-04-07T11:26:24;8.70;99.90
13892;DHT22;7016;48.172;8.058;2023-04-07T11:28:53;8.70;99.90
13892;DHT22;7016;48.172;8.058;2023-04-07T11:31:28;8.70;99.90
13892;DHT22;7016;48.172;8.058;2023-04-07T11:34:03;8.70;99.90
13892;DHT22;7016;48.172;8.058;2023-04-07T11:38:57;8.70;99.90
13892;DHT22;7016;48.172;8.058;2023-04-07T11:41:24;8.70;99.90
13892;DHT22;7016;48.172;8.058;2023-04-07T11:44:11;8.70;99.90
13892;DHT22;7016;48.172;8.058;2023-04-07T11:47:00;8.40;99.90
13892;DHT22;7016;48.172;8.058;2023-04-07T11:49:29;8.40;99.90
13892;DHT22;7016;48.172;8.058;2023-04-07T11:52:01;8.40;99.90
13892;DHT22;7016;48.172;8.058;2023-04-07T11:54:41;8.40;99.90
13892;DHT22;7016;48.172;8.058;2023-04-07T11:57:07;8.40;99.90
13892;DHT22;7016;48.172;8.058;2023-04-07T11:59:36;8.40;99.90
13892;DHT22;7016;48.172;8.058;2023-04-07T12:02:02;8.40;99.90
13892;DHT22;7016;48.172;8.058;2023-04-07T12:04:29;8.50;99.90
13892;DHT22;7016;48.172;8.058;2023-04-07T12:07:09;8.50;99.90
13892;DHT22;7016;48.172;8.058;2023-04-07T12:09:36;8.50;99.90
13892;DHT22;7016;48.172;8.058;2023-04-07T12:12:06;8.50;99.90
13892;DHT22;7016;48.172;8.058;2023-04-07T12:14:32;8.60;99.90
13892;DHT22;7016;48.172;8.058;2023-04-07T12:16:58;8.60;99.90
13892;DHT22;7016;48.172;8.058;2023-04-07T12:19:27;8.60;99.90
13892;DHT22;7016;48.172;8.058;2023-04-07T12:21:53;8.60;99.90
13892;DHT22;7016;48.172;8.058;2023-04-07T12:24:19;8.60;99.90
13892;DHT22;7016;48.172;8.058;2023-04-07T12:26:46;8.70;99.90
13892;DHT22;7016;48.172;8.058;2023-04-07T12:29:12;8.80;99.90
13892;DHT22;7016;48.172;8.058;2023-04-07T12:31:38;8.90;99.90
13892;DHT22;7016;48.172;8.058;2023-04-07T12:34:04;9.00;99.90
13892;DHT22;7016;48.172;8.058;2023-04-07T12:36:30;9.10;99.90
13892;DHT22;7016;48.172;8.058;2023-04-07T12:38:56;8.90;99.90
13892;DHT22;7016;48.172;8.058;2023-04-07T12:41:23;8.80;99.90
13892;DHT22;7016;48.172;8.058;2023-04-07T12:43:49;8.90;99.90
13892;DHT22;7016;48.172;8.058;2023-04-07T12:46:15;8.80;99.90
13892;DHT22;7016;48.172;8.058;2023-04-07T12:48:41;8.60;99.90
13892;DHT22;7016;48.172;8.058;2023-04-07T12:51:07;8.60;99.90
13892;DHT22;7016;48.172;8.058;2023-04-07T12:53:33;8.70;99.90
13892;DHT22;7016;48.172;8.058;2023-04-07T12:55:58;8.90;99.90
13892;DHT22;7016;48.172;8.058;2023-04-07T12:58:24;9.00;99.90
13892;DHT22;7016;48.172;8.058;2023-04-07T13:00:51;9.20;99.90
13892;DHT22;7016;48.172;8.058;2023-04-07T13:03:18;9.00;99.90
13892;DHT22;7016;48.172;8.058;2023-04-07T13:05:43;9.00;99.90
13892;DHT22;7016;48.172;8.058;2023-04-07T13:08:13;8.90;99.90
13892;DHT22;7016;48.172;8.058;2023-04-07T13:10:43;8.70;99.90
13892;DHT22;7016;48.172;8.058;2023-04-07T13:13:09;8.70;99.90
13892;DHT22;7016;48.172;8.058;2023-04-07T13:15:35;8.70;99.90
13892;DHT22;7016;48.172;8.058;2023-04-07T13:18:00;8.70;99.90
13892;DHT22;7016;48.172;8.058;2023-04-07T13:20:26;8.70;99.90
13892;DHT22;7016;48.172;8.058;2023-04-07T13:22:53;8.70;99.90
13892;DHT22;7016;48.172;8.058;2023-04-07T13:25:18;8.40;99.90
13892;DHT22;7016;48.172;8.058;2023-04-07T13:27:44;8.40;99.90
13892;DHT22;7016;48.172;8.058;2023-04-07T13:30:12;8.40;99.90
13892;DHT22;7016;48.172;8.058;2023-04-07T13:32:38;8.50;99.90
13892;DHT22;7016;48.172;8.058;2023-04-07T13:35:04;8.50;99.90
13892;DHT22;7016;48.172;8.058;2023-04-07T13:37:30;8.60;99.90
13892;DHT22;7016;48.172;8.058;2023-04-07T13:39:55;8.50;99.90
13892;DHT22;7016;48.172;8.058;2023-04-07T13:42:21;8.40;99.90
13892;DHT22;7016;48.172;8.058;2023-04-07T13:44:47;8.40;99.90
13892;DHT22;7016;48.172;8.058;2023-04-07T13:47:15;8.50;99.90
13892;DHT22;7016;48.172;8.058;2023-04-07T13:49:47;8.50;99.90
13892;DHT22;7016;48.172;8.058;2023-04-07T13:52:14;8.50;99.90
13892;DHT22;7016;48.172;8.058;2023-04-07T13:54:40;8.50;99.90
13892;DHT22;7016;48.172;8.058;2023-04-07T13:57:06;8.50;99.90
13892;DHT22;7016;48.172;8.058;2023-04-07T13:59:32;8.50;99.90
13892;DHT22;7016;48.172;8.058;2023-04-07T14:01:58;8.40;99.90
13892;DHT22;7016;48.172;8.058;2023-04-07T14:04:24;8.50;99.90
13892;DHT22;7016;48.172;8.058;2023-04-07T14:06:49;8.50;99.90
13892;DHT22;7016;48.172;8.058;2023-04-07T14:09:15;8.50;99.90
13892;DHT22;7016;48.172;8.058;2023-04-07T14:11:41;8.60;99.90
13892;DHT22;7016;48.172;8.058;2023-04-07T14:14:06;8.60;99.90
13892;DHT22;7016;48.172;8.058;2023-04-07T14:16:32;8.60;99.90
13892;DHT22;7016;48.172;8.058;2023-04-07T14:18:58;8.60;99.90
13892;DHT22;7016;48.172;8.058;2023-04-07T14:21:24;8.60;99.90
13892;DHT22;7016;48.172;8.058;2023-04-07T14:23:52;8.60;99.90
13892;DHT22;7016;48.172;8.058;2023-04-07T14:26:17;8.70;99.90
13892;DHT22;7016;48.172;8.058;2023-04-07T14:28:43;8.70;99.90
13892;DHT22;7016;48.172;8.058;2023-04-07T14:31:13;8.70;99.90
13892;DHT22;7016;48.172;8.058;2023-04-07T14:33:43;8.70;99.90
13892;DHT22;7016;48.172;8.058;2023-04-07T14:36:09;8.80;99.90
13892;DHT22;7016;48.172;8.058;2023-04-07T14:38:35;8.70;99.90
13892;DHT22;7016;48.172;8.058;2023-04-07T14:41:01;8.70;99.90
13892;DHT22;7016;48.172;8.058;2023-04-07T14:43:28;8.70;99.90
13892;DHT22;7016;48.172;8.058;2023-04-07T14:45:54;8.70;99.90
13892;DHT22;7016;48.172;8.058;2023-04-07T14:48:20;8.80;99.90
13892;DHT22;7016;48.172;8.058;2023-04-07T14:50:46;8.80;99.90
13892;DHT22;7016;48.172;8.058;2023-04-07T14:53:12;9.00;99.90
13892;DHT22;7016;48.172;8.058;2023-04-07T14:55:40;9.20;99.90
13892;DHT22;7016;48.172;8.058;2023-04-07T14:58:06;9.20;99.90
13892;DHT22;7016;48.172;8.058;2023-04-07T15:00:32;9.30;99.90
13892;DHT22;7016;48.172;8.058;2023-04-07T15:02:58;9.30;99.90
13892;DHT22;7016;48.172;8.058;2023-04-07T15:05:24;9.30;99.90
13892;DHT22;7016;48.172;8.058;2023-04-07T15:07:52;9.40;99.90
13892;DHT22;7016;48.172;8.058;2023-04-07T15:10:18;9.40;99.90
13892;DHT22;7016;48.172;8.058;2023-04-07T15:12:44;9.50;99.90
13892;DHT22;7016;48.172;8.058;2023-04-07T15:15:12;9.50;99.90
13892;DHT22;7016;48.172;8.058;2023-04-07T15:17:37;9.50;99.90
13892;DHT22;7016;48.172;8.058;2023-04-07T15:20:04;9.60;99.90
13892;DHT22;7016;48.172;8.058;2023-04-07T15:22:29;9.70;99.90
13892;DHT22;7016;48.172;8.058;2023-04-07T15:24:55;9.70;99.90
13892;DHT22;7016;48.172;8.058;2023-04-07T15:27:21;9.70;99.90
13892;DHT22;7016;48.172;8.058;2023-04-07T15:29:46;9.70;99.90
13892;DHT22;7016;48.172;8.058;2023-04-07T15:32:12;9.70;99.90
13892;DHT22;7016;48.172;8.058;2023-04-07T15:34:38;9.60;99.90
13892;DHT22;7016;48.172;8.058;2023-04-07T15:37:03;9.70;99.90
13892;DHT22;7016;48.172;8.058;2023-04-07T15:39:29;9.70;99.90
13892;DHT22;7016;48.172;8.058;2023-04-07T15:41:55;9.70;99.90
13892;DHT22;7016;48.172;8.058;2023-04-07T15:44:21;9.70;99.90
13892;DHT22;7016;48.172;8.058;2023-04-07T15:46:47;9.70;99.90
13892;DHT22;7016;48.172;8.058;2023-04-07T15:49:13;9.60;99.90
13892;DHT22;7016;48.172;8.058;2023-04-07T15:51:44;9.60;99.90
13892;DHT22;7016;48.172;8.058;2023-04-07T15:54:11;9.60;99.90
13892;DHT22;7016;48.172;8.058;2023-04-07T15:56:36;9.60;99.90
13892;DHT22;7016;48.172;8.058;2023-04-07T15:59:02;9.60;99.90
13892;DHT22;7016;48.172;8.058;2023-04-07T16:01:28;9.50;99.90
13892;DHT22;7016;48.172;8.058;2023-04-07T16:03:54;9.50;99.90
13892;DHT22;7016;48.172;8.058;2023-04-07T16:06:20;9.50;99.90
13892;DHT22;7016;48.172;8.058;2023-04-07T16:08:46;9.50;99.90
13892;DHT22;7016;48.172;8.058;2023-04-07T16:11:11;9.50;99.90
13892;DHT22;7016;48.172;8.058;2023-04-07T16:13:37;9.50;99.90
13892;DHT22;7016;48.172;8.058;2023-04-07T16:16:03;9.70;99.90
13892;DHT22;7016;48.172;8.058;2023-04-07T16:18:28;9.70;99.90
13892;DHT22;7016;48.172;8.058;2023-04-07T16:20:55;9.60;99.90
13892;DHT22;7016;48.172;8.058;2023-04-07T16:23:20;9.70;99.90
13892;DHT22;7016;48.172;8.058;2023-04-07T16:25:46;9.60;99.90
13892;DHT22;7016;48.172;8.058;2023-04-07T16:28:12;9.70;99.90
13892;DHT22;7016;48.172;8.058;2023-04-07T16:30:37;9.80;99.90
13892;DHT22;7016;48.172;8.058;2023-04-07T16:33:03;9.90;99.90
13892;DHT22;7016;48.172;8.058;2023-04-07T16:35:29;9.90;99.90
13892;DHT22;7016;48.172;8.058;2023-04-07T16:37:56;9.90;99.90